sensor_id;sensor_type;location;lat;lon;timestamp;P1;durP1;ratioP1;P2;durP2;ratioP2
34978;SDS011;21185;50.978;13.720;2023-03-05T00:03:03;9.88;;;1.60;;
34978;SDS011;21185;50.978;13.720;2023-03-05T00:08:05;8.63;;;2.35;;
34978;SDS011;21185;50.978;13.720;2023-03-05T00:13:07;6.07;;;2.03;;
34978;SDS011;21185;50.978;13.720;2023-03-05T00:18:08;10.48;;;2.42;;
34978;SDS011;21185;50.978;13.720;2023-03-05T00:23:10;6.95;;;1.73;;
34978;SDS011;21185;50.978;13.720;2023-03-05T00:28:12;3.80;;;1.90;;
34978;SDS011;21185;50.978;13.720;2023-03-05T00:33:14;2.97;;;1.48;;
34978;SDS011;21185;50.978;13.720;2023-03-05T00:38:16;8.85;;;2.00;;
34978;SDS011;21185;50.978;13.720;2023-03-05T00:43:18;8.45;;;2.00;;
34978;SDS011;21185;50.978;13.720;2023-03-05T00:48:20;4.28;;;1.60;;
34978;SDS011;21185;50.978;13.720;2023-03-05T00:53:25;3.95;;;1.80;;
34978;SDS011;21185;50.978;13.720;2023-03-05T00:58:27;9.65;;;1.77;;
34978;SDS011;21185;50.978;13.720;2023-03-05T01:03:30;15.77;;;2.67;;
34978;SDS011;21185;50.978;13.720;2023-03-05T01:08:34;4.22;;;1.63;;
34978;SDS011;21185;50.978;13.720;2023-03-05T01:13:36;7.60;;;2.03;;
34978;SDS011;21185;50.978;13.720;2023-03-05T01:18:39;3.22;;;0.98;;
34978;SDS011;21185;50.978;13.720;2023-03-05T01:23:41;9.70;;;1.48;;
34978;SDS011;21185;50.978;13.720;2023-03-05T01:28:43;7.25;;;1.25;;
34978;SDS011;21185;50.978;13.720;2023-03-05T01:33:45;5.30;;;1.45;;
34978;SDS011;21185;50.978;13.720;2023-03-05T01:38:50;11.70;;;1.45;;
34978;SDS011;21185;50.978;13.720;2023-03-05T01:43:52;11.57;;;2.13;;
34978;SDS011;21185;50.978;13.720;2023-03-05T01:54:44;6.65;;;1.27;;
34978;SDS011;21185;50.978;13.720;2023-03-05T01:59:51;5.72;;;1.98;;
34978;SDS011;21185;50.978;13.720;2023-03-05T02:05:04;5.18;;;1.25;;
34978;SDS011;21185;50.978;13.720;2023-03-05T02:10:18;6.65;;;1.38;;
34978;SDS011;21185;50.978;13.720;2023-03-05T02:15:22;3.20;;;1.33;;
34978;SDS011;21185;50.978;13.720;2023-03-05T02:20:26;6.38;;;1.52;;
34978;SDS011;21185;50.978;13.720;2023-03-05T02:25:30;9.27;;;1.85;;
34978;SDS011;21185;50.978;13.720;2023-03-05T02:30:32;1.05;;;0.82;;
34978;SDS011;21185;50.978;13.720;2023-03-05T02:35:36;4.35;;;1.55;;
34978;SDS011;21185;50.978;13.720;2023-03-05T02:40:39;3.67;;;1.75;;
34978;SDS011;21185;50.978;13.720;2023-03-05T02:45:42;9.80;;;1.67;;
34978;SDS011;21185;50.978;13.720;2023-03-05T02:50:43;6.57;;;1.83;;
34978;SDS011;21185;50.978;13.720;2023-03-05T02:55:46;6.75;;;1.65;;
34978;SDS011;21185;50.978;13.720;2023-03-05T03:00:49;8.63;;;1.30;;
34978;SDS011;21185;50.978;13.720;2023-03-05T03:05:51;3.55;;;1.67;;
34978;SDS011;21185;50.978;13.720;2023-03-05T03:10:52;5.18;;;1.70;;
34978;SDS011;21185;50.978;13.720;2023-03-05T03:16:18;2.65;;;1.60;;
34978;SDS011;21185;50.978;13.720;2023-03-05T03:21:20;4.00;;;1.45;;
34978;SDS011;21185;50.978;13.720;2023-03-05T03:26:25;1.10;;;1.00;;
34978;SDS011;21185;50.978;13.720;2023-03-05T03:31:27;6.55;;;1.48;;
34978;SDS011;21185;50.978;13.720;2023-03-05T03:36:29;3.17;;;1.90;;
34978;SDS011;21185;50.978;13.720;2023-03-05T03:41:31;5.03;;;1.50;;
34978;SDS011;21185;50.978;13.720;2023-03-05T03:46:33;3.75;;;1.80;;
34978;SDS011;21185;50.978;13.720;2023-03-05T03:51:36;2.70;;;1.35;;
34978;SDS011;21185;50.978;13.720;2023-03-05T03:56:37;6.03;;;1.70;;
34978;SDS011;21185;50.978;13.720;2023-03-05T04:01:39;1.48;;;1.15;;
34978;SDS011;21185;50.978;13.720;2023-03-05T04:06:41;2.33;;;0.90;;
34978;SDS011;21185;50.978;13.720;2023-03-05T04:11:44;2.50;;;1.05;;
34978;SDS011;21185;50.978;13.720;2023-03-05T04:16:46;2.38;;;0.63;;
34978;SDS011;21185;50.978;13.720;2023-03-05T04:21:48;0.82;;;0.82;;
34978;SDS011;21185;50.978;13.720;2023-03-05T04:26:50;1.33;;;0.93;;
34978;SDS011;21185;50.978;13.720;2023-03-05T04:31:51;0.70;;;0.70;;
34978;SDS011;21185;50.978;13.720;2023-03-05T04:36:53;0.80;;;0.80;;
34978;SDS011;21185;50.978;13.720;2023-03-05T04:42:21;1.48;;;1.27;;
34978;SDS011;21185;50.978;13.720;2023-03-05T04:47:23;0.70;;;0.70;;
34978;SDS011;21185;50.978;13.720;2023-03-05T04:52:25;1.80;;;1.27;;
34978;SDS011;21185;50.978;13.720;2023-03-05T04:57:27;1.85;;;1.00;;
34978;SDS011;21185;50.978;13.720;2023-03-05T05:02:29;3.95;;;0.93;;
34978;SDS011;21185;50.978;13.720;2023-03-05T05:07:31;5.45;;;1.50;;
34978;SDS011;21185;50.978;13.720;2023-03-05T05:12:33;2.47;;;1.63;;
34978;SDS011;21185;50.978;13.720;2023-03-05T05:17:36;3.10;;;1.50;;
34978;SDS011;21185;50.978;13.720;2023-03-05T05:22:38;1.45;;;0.85;;
34978;SDS011;21185;50.978;13.720;2023-03-05T05:27:40;7.80;;;1.40;;
34978;SDS011;21185;50.978;13.720;2023-03-05T05:32:42;3.45;;;1.70;;
34978;SDS011;21185;50.978;13.720;2023-03-05T05:37:44;3.70;;;1.80;;
34978;SDS011;21185;50.978;13.720;2023-03-05T05:42:46;5.15;;;1.77;;
34978;SDS011;21185;50.978;13.720;2023-03-05T05:47:49;2.65;;;1.27;;
34978;SDS011;21185;50.978;13.720;2023-03-05T05:52:52;2.38;;;1.75;;
34978;SDS011;21185;50.978;13.720;2023-03-05T05:57:55;4.60;;;1.45;;
34978;SDS011;21185;50.978;13.720;2023-03-05T06:03:01;1.77;;;1.63;;
34978;SDS011;21185;50.978;13.720;2023-03-05T06:08:05;0.93;;;0.93;;
34978;SDS011;21185;50.978;13.720;2023-03-05T06:13:07;4.72;;;1.77;;
34978;SDS011;21185;50.978;13.720;2023-03-05T06:18:09;9.43;;;1.45;;
34978;SDS011;21185;50.978;13.720;2023-03-05T06:23:11;1.83;;;1.23;;
34978;SDS011;21185;50.978;13.720;2023-03-05T06:28:12;6.95;;;1.30;;
34978;SDS011;21185;50.978;13.720;2023-03-05T06:33:14;3.13;;;1.65;;
34978;SDS011;21185;50.978;13.720;2023-03-05T06:38:16;2.17;;;1.20;;
34978;SDS011;21185;50.978;13.720;2023-03-05T06:43:18;1.52;;;1.27;;
34978;SDS011;21185;50.978;13.720;2023-03-05T06:48:20;1.40;;;0.82;;
34978;SDS011;21185;50.978;13.720;2023-03-05T06:53:23;3.42;;;0.80;;
34978;SDS011;21185;50.978;13.720;2023-03-05T06:58:25;0.65;;;0.65;;
34978;SDS011;21185;50.978;13.720;2023-03-05T07:03:27;1.13;;;0.95;;
34978;SDS011;21185;50.978;13.720;2023-03-05T07:08:30;1.23;;;0.90;;
34978;SDS011;21185;50.978;13.720;2023-03-05T07:13:32;2.83;;;1.08;;
34978;SDS011;21185;50.978;13.720;2023-03-05T07:18:34;1.25;;;0.90;;
34978;SDS011;21185;50.978;13.720;2023-03-05T07:23:36;0.88;;;0.80;;
34978;SDS011;21185;50.978;13.720;2023-03-05T07:28:38;2.05;;;1.08;;
34978;SDS011;21185;50.978;13.720;2023-03-05T07:33:40;5.25;;;1.00;;
34978;SDS011;21185;50.978;13.720;2023-03-05T07:38:42;1.17;;;1.08;;
34978;SDS011;21185;50.978;13.720;2023-03-05T07:43:46;1.13;;;0.90;;
34978;SDS011;21185;50.978;13.720;2023-03-05T07:48:49;3.25;;;1.30;;
34978;SDS011;21185;50.978;13.720;2023-03-05T07:53:51;2.45;;;1.30;;
34978;SDS011;21185;50.978;13.720;2023-03-05T07:58:55;0.65;;;0.65;;
34978;SDS011;21185;50.978;13.720;2023-03-05T08:03:57;4.38;;;0.80;;
34978;SDS011;21185;50.978;13.720;2023-03-05T08:08:59;0.90;;;0.90;;
34978;SDS011;21185;50.978;13.720;2023-03-05T08:14:01;2.25;;;1.13;;
34978;SDS011;21185;50.978;13.720;2023-03-05T08:19:04;1.05;;;0.88;;
34978;SDS011;21185;50.978;13.720;2023-03-05T08:24:09;1.95;;;1.23;;
34978;SDS011;21185;50.978;13.720;2023-03-05T08:29:12;0.73;;;0.60;;
34978;SDS011;21185;50.978;13.720;2023-03-05T08:34:14;1.35;;;0.90;;
34978;SDS011;21185;50.978;13.720;2023-03-05T08:39:17;2.70;;;0.82;;
34978;SDS011;21185;50.978;13.720;2023-03-05T08:44:19;1.73;;;1.05;;
34978;SDS011;21185;50.978;13.720;2023-03-05T08:49:21;1.38;;;1.05;;
34978;SDS011;21185;50.978;13.720;2023-03-05T08:54:24;2.15;;;0.75;;
34978;SDS011;21185;50.978;13.720;2023-03-05T08:59:26;1.40;;;1.30;;
34978;SDS011;21185;50.978;13.720;2023-03-05T09:04:27;6.53;;;1.50;;
34978;SDS011;21185;50.978;13.720;2023-03-05T09:09:29;5.18;;;1.40;;
34978;SDS011;21185;50.978;13.720;2023-03-05T09:14:33;1.95;;;1.50;;
34978;SDS011;21185;50.978;13.720;2023-03-05T09:19:35;1.10;;;1.05;;
34978;SDS011;21185;50.978;13.720;2023-03-05T09:24:37;8.73;;;1.70;;
34978;SDS011;21185;50.978;13.720;2023-03-05T09:29:39;2.95;;;1.30;;
34978;SDS011;21185;50.978;13.720;2023-03-05T09:34:44;1.75;;;1.38;;
34978;SDS011;21185;50.978;13.720;2023-03-05T09:39:45;6.55;;;1.13;;
34978;SDS011;21185;50.978;13.720;2023-03-05T09:55:43;2.60;;;1.63;;
34978;SDS011;21185;50.978;13.720;2023-03-05T10:00:49;2.72;;;1.42;;
34978;SDS011;21185;50.978;13.720;2023-03-05T10:06:09;5.63;;;1.75;;
34978;SDS011;21185;50.978;13.720;2023-03-05T10:11:28;8.07;;;2.38;;
34978;SDS011;21185;50.978;13.720;2023-03-05T10:22:35;3.88;;;1.52;;
34978;SDS011;21185;50.978;13.720;2023-03-05T10:44:11;2.72;;;1.83;;
34978;SDS011;21185;50.978;13.720;2023-03-05T10:49:25;3.58;;;1.67;;
34978;SDS011;21185;50.978;13.720;2023-03-05T10:54:33;3.33;;;1.70;;
34978;SDS011;21185;50.978;13.720;2023-03-05T10:59:36;1.58;;;1.27;;
34978;SDS011;21185;50.978;13.720;2023-03-05T11:04:38;2.53;;;1.80;;
34978;SDS011;21185;50.978;13.720;2023-03-05T11:09:42;7.60;;;1.77;;
34978;SDS011;21185;50.978;13.720;2023-03-05T11:15:02;6.13;;;2.15;;
34978;SDS011;21185;50.978;13.720;2023-03-05T11:25:27;5.72;;;2.30;;
34978;SDS011;21185;50.978;13.720;2023-03-05T11:30:35;6.35;;;2.67;;
34978;SDS011;21185;50.978;13.720;2023-03-05T11:35:38;2.75;;;2.20;;
34978;SDS011;21185;50.978;13.720;2023-03-05T11:40:46;4.93;;;2.72;;
34978;SDS011;21185;50.978;13.720;2023-03-05T11:45:50;6.45;;;2.65;;
34978;SDS011;21185;50.978;13.720;2023-03-05T11:51:00;3.38;;;2.38;;
34978;SDS011;21185;50.978;13.720;2023-03-05T11:56:20;8.00;;;3.45;;
34978;SDS011;21185;50.978;13.720;2023-03-05T12:01:31;8.48;;;5.00;;
34978;SDS011;21185;50.978;13.720;2023-03-05T12:06:38;5.38;;;3.55;;
34978;SDS011;21185;50.978;13.720;2023-03-05T12:11:45;11.15;;;2.67;;
34978;SDS011;21185;50.978;13.720;2023-03-05T12:22:16;6.10;;;3.38;;
34978;SDS011;21185;50.978;13.720;2023-03-05T12:27:32;4.90;;;2.90;;
34978;SDS011;21185;50.978;13.720;2023-03-05T12:58:02;8.30;;;2.22;;
34978;SDS011;21185;50.978;13.720;2023-03-05T13:03:17;3.75;;;2.10;;
34978;SDS011;21185;50.978;13.720;2023-03-05T13:08:27;5.68;;;2.42;;
34978;SDS011;21185;50.978;13.720;2023-03-05T13:13:33;2.58;;;1.77;;
34978;SDS011;21185;50.978;13.720;2023-03-05T13:18:38;3.60;;;2.25;;
34978;SDS011;21185;50.978;13.720;2023-03-05T13:23:45;2.42;;;1.60;;
34978;SDS011;21185;50.978;13.720;2023-03-05T13:29:12;2.67;;;1.95;;
34978;SDS011;21185;50.978;13.720;2023-03-05T13:34:29;25.00;;;3.40;;
34978;SDS011;21185;50.978;13.720;2023-03-05T13:39:48;7.10;;;2.67;;
34978;SDS011;21185;50.978;13.720;2023-03-05T13:44:55;5.25;;;1.98;;
34978;SDS011;21185;50.978;13.720;2023-03-05T13:50:20;3.97;;;2.20;;
34978;SDS011;21185;50.978;13.720;2023-03-05T13:55:25;5.13;;;2.00;;
34978;SDS011;21185;50.978;13.720;2023-03-05T14:00:31;3.88;;;2.05;;
34978;SDS011;21185;50.978;13.720;2023-03-05T14:05:36;1.65;;;1.55;;
34978;SDS011;21185;50.978;13.720;2023-03-05T14:10:45;7.43;;;3.75;;
34978;SDS011;21185;50.978;13.720;2023-03-05T14:21:05;6.07;;;2.05;;
34978;SDS011;21185;50.978;13.720;2023-03-05T14:26:25;3.30;;;1.75;;
34978;SDS011;21185;50.978;13.720;2023-03-05T14:31:31;3.85;;;1.70;;
34978;SDS011;21185;50.978;13.720;2023-03-05T14:36:39;4.68;;;2.38;;
34978;SDS011;21185;50.978;13.720;2023-03-05T14:41:50;5.00;;;1.92;;
34978;SDS011;21185;50.978;13.720;2023-03-05T14:46:52;4.78;;;1.83;;
34978;SDS011;21185;50.978;13.720;2023-03-05T14:51:54;2.92;;;1.55;;
34978;SDS011;21185;50.978;13.720;2023-03-05T14:56:55;6.25;;;2.20;;
34978;SDS011;21185;50.978;13.720;2023-03-05T15:01:57;3.47;;;2.20;;
34978;SDS011;21185;50.978;13.720;2023-03-05T15:06:59;1.67;;;1.40;;
34978;SDS011;21185;50.978;13.720;2023-03-05T15:12:01;8.75;;;2.63;;
34978;SDS011;21185;50.978;13.720;2023-03-05T15:17:03;5.05;;;2.05;;
34978;SDS011;21185;50.978;13.720;2023-03-05T15:22:05;2.88;;;1.67;;
34978;SDS011;21185;50.978;13.720;2023-03-05T15:27:07;2.72;;;1.70;;
34978;SDS011;21185;50.978;13.720;2023-03-05T15:32:09;2.45;;;1.60;;
34978;SDS011;21185;50.978;13.720;2023-03-05T15:37:11;3.72;;;2.25;;
34978;SDS011;21185;50.978;13.720;2023-03-05T15:42:13;4.88;;;2.05;;
34978;SDS011;21185;50.978;13.720;2023-03-05T15:47:15;3.03;;;1.52;;
34978;SDS011;21185;50.978;13.720;2023-03-05T15:52:17;3.58;;;1.90;;
34978;SDS011;21185;50.978;13.720;2023-03-05T15:57:19;2.38;;;1.10;;
34978;SDS011;21185;50.978;13.720;2023-03-05T16:02:24;3.20;;;1.77;;
34978;SDS011;21185;50.978;13.720;2023-03-05T16:07:26;3.20;;;1.58;;
34978;SDS011;21185;50.978;13.720;2023-03-05T16:12:34;2.00;;;1.60;;
34978;SDS011;21185;50.978;13.720;2023-03-05T16:17:44;2.40;;;1.63;;
34978;SDS011;21185;50.978;13.720;2023-03-05T16:22:49;5.85;;;2.13;;
34978;SDS011;21185;50.978;13.720;2023-03-05T16:27:51;3.42;;;1.77;;
34978;SDS011;21185;50.978;13.720;2023-03-05T16:32:53;4.25;;;1.90;;
34978;SDS011;21185;50.978;13.720;2023-03-05T16:37:55;5.05;;;2.22;;
34978;SDS011;21185;50.978;13.720;2023-03-05T16:42:57;3.65;;;1.85;;
34978;SDS011;21185;50.978;13.720;2023-03-05T16:47:59;4.53;;;2.08;;
34978;SDS011;21185;50.978;13.720;2023-03-05T16:53:01;3.55;;;2.00;;
34978;SDS011;21185;50.978;13.720;2023-03-05T16:58:03;4.90;;;1.80;;
34978;SDS011;21185;50.978;13.720;2023-03-05T17:03:07;3.20;;;1.80;;
34978;SDS011;21185;50.978;13.720;2023-03-05T17:08:09;3.40;;;2.10;;
34978;SDS011;21185;50.978;13.720;2023-03-05T17:13:11;3.38;;;2.05;;
34978;SDS011;21185;50.978;13.720;2023-03-05T17:18:13;3.60;;;2.20;;
34978;SDS011;21185;50.978;13.720;2023-03-05T17:23:15;11.98;;;3.53;;
34978;SDS011;21185;50.978;13.720;2023-03-05T17:28:16;14.55;;;4.95;;
34978;SDS011;21185;50.978;13.720;2023-03-05T17:33:18;14.60;;;4.10;;
34978;SDS011;21185;50.978;13.720;2023-03-05T17:38:21;7.75;;;3.45;;
34978;SDS011;21185;50.978;13.720;2023-03-05T17:43:23;5.45;;;3.42;;
34978;SDS011;21185;50.978;13.720;2023-03-05T17:48:25;10.57;;;5.45;;
34978;SDS011;21185;50.978;13.720;2023-03-05T17:53:27;5.07;;;3.03;;
34978;SDS011;21185;50.978;13.720;2023-03-05T17:58:29;18.40;;;8.30;;
34978;SDS011;21185;50.978;13.720;2023-03-05T18:03:31;11.68;;;6.28;;
34978;SDS011;21185;50.978;13.720;2023-03-05T18:08:33;7.70;;;4.60;;
34978;SDS011;21185;50.978;13.720;2023-03-05T18:13:35;5.13;;;3.00;;
34978;SDS011;21185;50.978;13.720;2023-03-05T18:18:37;4.28;;;2.58;;
34978;SDS011;21185;50.978;13.720;2023-03-05T18:23:39;14.38;;;4.25;;
34978;SDS011;21185;50.978;13.720;2023-03-05T18:28:41;6.75;;;2.97;;
34978;SDS011;21185;50.978;13.720;2023-03-05T18:33:43;7.55;;;3.72;;
34978;SDS011;21185;50.978;13.720;2023-03-05T18:38:45;5.30;;;3.15;;
34978;SDS011;21185;50.978;13.720;2023-03-05T18:43:47;14.80;;;5.53;;
34978;SDS011;21185;50.978;13.720;2023-03-05T18:48:49;8.75;;;3.95;;
34978;SDS011;21185;50.978;13.720;2023-03-05T18:53:51;7.25;;;3.05;;
34978;SDS011;21185;50.978;13.720;2023-03-05T18:58:55;6.22;;;3.13;;
34978;SDS011;21185;50.978;13.720;2023-03-05T19:03:59;13.40;;;4.00;;
34978;SDS011;21185;50.978;13.720;2023-03-05T19:09:01;9.93;;;4.65;;
34978;SDS011;21185;50.978;13.720;2023-03-05T19:14:09;8.55;;;4.65;;
34978;SDS011;21185;50.978;13.720;2023-03-05T19:19:14;19.23;;;7.20;;
34978;SDS011;21185;50.978;13.720;2023-03-05T19:24:23;7.85;;;4.88;;
34978;SDS011;21185;50.978;13.720;2023-03-05T19:29:27;6.03;;;3.83;;
34978;SDS011;21185;50.978;13.720;2023-03-05T19:34:33;7.35;;;3.05;;
34978;SDS011;21185;50.978;13.720;2023-03-05T19:39:36;6.47;;;2.83;;
34978;SDS011;21185;50.978;13.720;2023-03-05T19:44:38;7.40;;;3.35;;
34978;SDS011;21185;50.978;13.720;2023-03-05T19:49:40;3.80;;;2.42;;
34978;SDS011;21185;50.978;13.720;2023-03-05T19:54:42;4.03;;;2.83;;
34978;SDS011;21185;50.978;13.720;2023-03-05T19:59:44;6.28;;;3.15;;
34978;SDS011;21185;50.978;13.720;2023-03-05T20:04:47;6.28;;;2.92;;
34978;SDS011;21185;50.978;13.720;2023-03-05T20:09:51;5.50;;;2.60;;
34978;SDS011;21185;50.978;13.720;2023-03-05T20:14:56;5.22;;;2.75;;
34978;SDS011;21185;50.978;13.720;2023-03-05T20:19:57;6.55;;;2.55;;
34978;SDS011;21185;50.978;13.720;2023-03-05T20:25:00;3.70;;;2.70;;
34978;SDS011;21185;50.978;13.720;2023-03-05T20:30:03;4.78;;;2.03;;
34978;SDS011;21185;50.978;13.720;2023-03-05T20:35:09;3.72;;;2.13;;
34978;SDS011;21185;50.978;13.720;2023-03-05T20:40:14;4.75;;;2.60;;
34978;SDS011;21185;50.978;13.720;2023-03-05T20:45:17;3.70;;;2.30;;
34978;SDS011;21185;50.978;13.720;2023-03-05T20:50:19;5.65;;;2.58;;
34978;SDS011;21185;50.978;13.720;2023-03-05T20:55:21;3.67;;;2.28;;
34978;SDS011;21185;50.978;13.720;2023-03-05T21:00:24;3.17;;;1.98;;
34978;SDS011;21185;50.978;13.720;2023-03-05T21:05:27;4.13;;;1.90;;
34978;SDS011;21185;50.978;13.720;2023-03-05T21:10:30;3.40;;;2.00;;
34978;SDS011;21185;50.978;13.720;2023-03-05T21:15:33;3.15;;;2.05;;
34978;SDS011;21185;50.978;13.720;2023-03-05T21:20:34;5.65;;;2.50;;
34978;SDS011;21185;50.978;13.720;2023-03-05T21:25:36;5.38;;;2.67;;
34978;SDS011;21185;50.978;13.720;2023-03-05T21:30:40;4.32;;;2.25;;
34978;SDS011;21185;50.978;13.720;2023-03-05T21:35:47;3.22;;;1.85;;
34978;SDS011;21185;50.978;13.720;2023-03-05T21:40:50;6.70;;;2.33;;
34978;SDS011;21185;50.978;13.720;2023-03-05T21:45:54;3.17;;;1.30;;
34978;SDS011;21185;50.978;13.720;2023-03-05T21:50:57;4.45;;;1.77;;
34978;SDS011;21185;50.978;13.720;2023-03-05T21:56:01;3.55;;;1.85;;
34978;SDS011;21185;50.978;13.720;2023-03-05T22:01:21;6.03;;;2.28;;
34978;SDS011;21185;50.978;13.720;2023-03-05T22:06:23;3.95;;;2.03;;
34978;SDS011;21185;50.978;13.720;2023-03-05T22:11:25;2.80;;;1.70;;
34978;SDS011;21185;50.978;13.720;2023-03-05T22:16:30;3.72;;;2.55;;
34978;SDS011;21185;50.978;13.720;2023-03-05T22:21:32;4.78;;;2.30;;
34978;SDS011;21185;50.978;13.720;2023-03-05T22:26:35;4.20;;;2.60;;
34978;SDS011;21185;50.978;13.720;2023-03-05T22:31:38;5.55;;;1.42;;
34978;SDS011;21185;50.978;13.720;2023-03-05T22:36:41;4.43;;;1.90;;
34978;SDS011;21185;50.978;13.720;2023-03-05T22:41:43;2.25;;;1.80;;
34978;SDS011;21185;50.978;13.720;2023-03-05T22:46:45;2.15;;;1.38;;
34978;SDS011;21185;50.978;13.720;2023-03-05T22:51:47;5.17;;;2.17;;
34978;SDS011;21185;50.978;13.720;2023-03-05T22:56:49;3.72;;;1.98;;
34978;SDS011;21185;50.978;13.720;2023-03-05T23:01:51;3.03;;;1.80;;
34978;SDS011;21185;50.978;13.720;2023-03-05T23:06:53;2.13;;;1.88;;
34978;SDS011;21185;50.978;13.720;2023-03-05T23:11:56;5.95;;;2.00;;
34978;SDS011;21185;50.978;13.720;2023-03-05T23:16:58;3.50;;;2.08;;
34978;SDS011;21185;50.978;13.720;2023-03-05T23:22:00;4.03;;;2.30;;
34978;SDS011;21185;50.978;13.720;2023-03-05T23:27:02;4.43;;;2.55;;
34978;SDS011;21185;50.978;13.720;2023-03-05T23:32:06;3.65;;;1.95;;
34978;SDS011;21185;50.978;13.720;2023-03-05T23:37:08;3.60;;;2.30;;
34978;SDS011;21185;50.978;13.720;2023-03-05T23:42:10;4.55;;;2.38;;
34978;SDS011;21185;50.978;13.720;2023-03-05T23:47:12;3.83;;;2.47;;
34978;SDS011;21185;50.978;13.720;2023-03-05T23:52:14;6.13;;;3.00;;
34978;SDS011;21185;50.978;13.720;2023-03-05T23:57:16;8.02;;;2.60;;
